Wausau, Wisconsin
Current Conditions -  °F | °C
As of 8:54 PM on Wednesday 26 Nov 2014 (Local Time) from KAUW Reporting Station
Broken Clouds Broken Clouds  
Wind Chill: 13°   Ceiling: 9000
Heat Index: 22°   Visibility: 10mi
Dew Point: 17°   Wind: 8mph
Humidity: 82%   Direction: 330°NNW
Pressure: 30.15"   Gusts: NA
Location:  44.96°N, 89.63°W
Report Text: KAUW 270254Z AUTO 33007KT 10SM FEW026 BKN090 BKN110 M06/M08 A3015 RMK AO2 SLP235 60000 T10561083 52001
Loading
Personal Weather Stations






























Interactive Weather Map New forecast layout! Learn more

10-Day Weather Forecast

Advertisements
Track Severe Weather on mobile